sensor_id;sensor_type;location;lat;lon;timestamp;pressure;altitude;pressure_sealevel;temperature;humidity
45327;BME280;31062;49.678;24.560;2024-01-16T00:00:34;96337.09;;;0.89;60.58
45327;BME280;31062;49.678;24.560;2024-01-16T00:03:40;96335.97;;;0.92;59.95
45327;BME280;31062;49.678;24.560;2024-01-16T00:06:46;96335.81;;;0.90;59.75
45327;BME280;31062;49.678;24.560;2024-01-16T00:09:52;96333.06;;;0.90;59.70
45327;BME280;31062;49.678;24.560;2024-01-16T00:12:58;96335.03;;;0.97;59.70
45327;BME280;31062;49.678;24.560;2024-01-16T00:16:04;96347.94;;;0.97;59.20
45327;BME280;31062;49.678;24.560;2024-01-16T00:19:13;96355.75;;;1.00;60.30
45327;BME280;31062;49.678;24.560;2024-01-16T00:22:19;96329.44;;;0.95;59.66
45327;BME280;31062;49.678;24.560;2024-01-16T00:25:25;96355.53;;;1.06;59.62
45327;BME280;31062;49.678;24.560;2024-01-16T00:28:31;96363.16;;;1.07;58.86
45327;BME280;31062;49.678;24.560;2024-01-16T00:31:38;96362.81;;;1.03;59.73
45327;BME280;31062;49.678;24.560;2024-01-16T00:34:25;96369.91;;;1.06;59.59
45327;BME280;31062;49.678;24.560;2024-01-16T00:37:12;96368.59;;;1.07;59.74
45327;BME280;31062;49.678;24.560;2024-01-16T00:39:59;96380.81;;;1.06;59.17
45327;BME280;31062;49.678;24.560;2024-01-16T00:42:45;96378.09;;;1.06;59.66
45327;BME280;31062;49.678;24.560;2024-01-16T00:45:30;96369.41;;;1.00;59.73
45327;BME280;31062;49.678;24.560;2024-01-16T00:48:16;96378.09;;;1.06;59.51
45327;BME280;31062;49.678;24.560;2024-01-16T00:51:04;96382.81;;;1.06;59.77
45327;BME280;31062;49.678;24.560;2024-01-16T00:53:50;96379.19;;;1.03;59.56
45327;BME280;31062;49.678;24.560;2024-01-16T00:56:36;96287.34;;;0.16;59.27
45327;BME280;31062;49.678;24.560;2024-01-16T00:59:41;96375.41;;;0.99;59.24
45327;BME280;31062;49.678;24.560;2024-01-16T01:02:27;96368.91;;;0.94;59.69
45327;BME280;31062;49.678;24.560;2024-01-16T01:05:15;96379.31;;;0.88;60.04
45327;BME280;31062;49.678;24.560;2024-01-16T01:08:01;96373.34;;;0.82;59.66
45327;BME280;31062;49.678;24.560;2024-01-16T01:10:49;96279.94;;;0.09;60.08
45327;BME280;31062;49.678;24.560;2024-01-16T01:13:35;96392.44;;;0.82;60.44
45327;BME280;31062;49.678;24.560;2024-01-16T01:16:21;96396.44;;;0.81;59.85
45327;BME280;31062;49.678;24.560;2024-01-16T01:19:08;96385.91;;;0.77;60.11
45327;BME280;31062;49.678;24.560;2024-01-16T01:21:54;96387.75;;;0.75;60.19
45327;BME280;31062;49.678;24.560;2024-01-16T01:24:39;96391.00;;;0.73;60.21
45327;BME280;31062;49.678;24.560;2024-01-16T01:27:25;96392.28;;;0.72;61.31
45327;BME280;31062;49.678;24.560;2024-01-16T01:30:11;96398.31;;;0.71;60.64
45327;BME280;31062;49.678;24.560;2024-01-16T01:32:57;96396.84;;;0.70;60.93
45327;BME280;31062;49.678;24.560;2024-01-16T01:35:43;96393.59;;;0.71;60.98
45327;BME280;31062;49.678;24.560;2024-01-16T01:38:49;96407.22;;;0.71;61.49
45327;BME280;31062;49.678;24.560;2024-01-16T01:41:57;96394.28;;;0.72;61.45
45327;BME280;31062;49.678;24.560;2024-01-16T01:45:04;96396.84;;;0.70;61.77
45327;BME280;31062;49.678;24.560;2024-01-16T01:48:11;96399.41;;;0.68;61.25
45327;BME280;31062;49.678;24.560;2024-01-16T01:51:19;96392.91;;;0.56;61.68
45327;BME280;31062;49.678;24.560;2024-01-16T01:54:27;96411.06;;;0.61;61.83
45327;BME280;31062;49.678;24.560;2024-01-16T01:57:13;96412.19;;;0.58;61.39
45327;BME280;31062;49.678;24.560;2024-01-16T01:59:58;96412.00;;;0.56;61.92
45327;BME280;31062;49.678;24.560;2024-01-16T02:02:46;96411.81;;;0.54;62.33
45327;BME280;31062;49.678;24.560;2024-01-16T02:05:33;96407.47;;;0.51;62.32
45327;BME280;31062;49.678;24.560;2024-01-16T02:08:18;96415.88;;;0.45;62.65
45327;BME280;31062;49.678;24.560;2024-01-16T02:11:05;96417.88;;;0.45;62.64
45327;BME280;31062;49.678;24.560;2024-01-16T02:13:51;96424.44;;;0.42;62.61
45327;BME280;31062;49.678;24.560;2024-01-16T02:16:39;96428.59;;;0.43;62.85
45327;BME280;31062;49.678;24.560;2024-01-16T02:19:25;96298.84;;;-0.56;63.63
45327;BME280;31062;49.678;24.560;2024-01-16T02:22:16;96432.25;;;0.37;63.08
45327;BME280;31062;49.678;24.560;2024-01-16T02:25:05;96442.41;;;0.45;63.81
45327;BME280;31062;49.678;24.560;2024-01-16T02:27:51;96447.84;;;0.45;63.42
45327;BME280;31062;49.678;24.560;2024-01-16T02:30:38;96433.50;;;0.36;62.95
45327;BME280;31062;49.678;24.560;2024-01-16T02:33:24;96449.50;;;0.48;63.57
45327;BME280;31062;49.678;24.560;2024-01-16T02:36:11;96453.66;;;0.49;63.07
45327;BME280;31062;49.678;24.560;2024-01-16T02:38:57;96447.09;;;0.52;63.50
45327;BME280;31062;49.678;24.560;2024-01-16T02:41:43;96455.63;;;0.56;63.51
45327;BME280;31062;49.678;24.560;2024-01-16T02:44:29;96454.69;;;0.61;63.00
45327;BME280;31062;49.678;24.560;2024-01-16T02:47:15;96461.59;;;0.62;62.97
45327;BME280;31062;49.678;24.560;2024-01-16T02:50:03;96446.69;;;0.63;63.23
45327;BME280;31062;49.678;24.560;2024-01-16T02:52:51;96449.59;;;0.65;63.28
45327;BME280;31062;49.678;24.560;2024-01-16T02:55:37;96456.69;;;0.68;62.85
45327;BME280;31062;49.678;24.560;2024-01-16T02:58:23;96454.50;;;0.66;62.87
45327;BME280;31062;49.678;24.560;2024-01-16T03:01:10;96467.41;;;0.66;63.16
45327;BME280;31062;49.678;24.560;2024-01-16T03:03:56;96451.78;;;0.66;63.40
45327;BME280;31062;49.678;24.560;2024-01-16T03:06:45;96457.78;;;0.65;63.12
45327;BME280;31062;49.678;24.560;2024-01-16T03:09:31;96465.97;;;0.65;63.52
45327;BME280;31062;49.678;24.560;2024-01-16T03:12:23;96465.97;;;0.65;63.33
45327;BME280;31062;49.678;24.560;2024-01-16T03:15:15;96468.13;;;0.66;63.33
45327;BME280;31062;49.678;24.560;2024-01-16T03:18:00;96475.78;;;0.68;63.17
45327;BME280;31062;49.678;24.560;2024-01-16T03:20:47;96475.94;;;0.70;62.98
45327;BME280;31062;49.678;24.560;2024-01-16T03:23:32;96474.69;;;0.71;63.22
45327;BME280;31062;49.678;24.560;2024-01-16T03:26:19;96489.59;;;0.70;62.66
45327;BME280;31062;49.678;24.560;2024-01-16T03:29:05;96493.59;;;0.69;62.76
45327;BME280;31062;49.678;24.560;2024-01-16T03:31:52;96494.13;;;0.67;63.59
45327;BME280;31062;49.678;24.560;2024-01-16T03:34:39;96503.03;;;0.68;62.90
45327;BME280;31062;49.678;24.560;2024-01-16T03:37:26;96500.31;;;0.68;62.91
45327;BME280;31062;49.678;24.560;2024-01-16T03:40:12;96365.41;;;-0.26;63.58
45327;BME280;31062;49.678;24.560;2024-01-16T03:42:59;96494.66;;;0.66;64.17
45327;BME280;31062;49.678;24.560;2024-01-16T03:45:45;96508.16;;;0.64;64.08
45327;BME280;31062;49.678;24.560;2024-01-16T03:48:31;96513.59;;;0.64;63.92
45327;BME280;31062;49.678;24.560;2024-01-16T03:51:17;96503.44;;;0.64;64.15
45327;BME280;31062;49.678;24.560;2024-01-16T03:54:05;96513.59;;;0.64;64.20
45327;BME280;31062;49.678;24.560;2024-01-16T03:56:51;96513.59;;;0.64;64.18
45327;BME280;31062;49.678;24.560;2024-01-16T03:59:37;96512.50;;;0.67;63.75
45327;BME280;31062;49.678;24.560;2024-01-16T04:02:23;96517.94;;;0.67;63.91
45327;BME280;31062;49.678;24.560;2024-01-16T04:05:09;96525.97;;;0.65;64.58
45327;BME280;31062;49.678;24.560;2024-01-16T04:07:58;96523.06;;;0.63;64.50
45327;BME280;31062;49.678;24.560;2024-01-16T04:10:44;96531.03;;;0.68;64.40
45327;BME280;31062;49.678;24.560;2024-01-16T04:13:32;96535.75;;;0.68;64.20
45327;BME280;31062;49.678;24.560;2024-01-16T04:16:18;96534.31;;;0.67;64.12
45327;BME280;31062;49.678;24.560;2024-01-16T04:19:04;96541.03;;;0.66;64.45
45327;BME280;31062;49.678;24.560;2024-01-16T04:21:50;96540.88;;;0.64;64.79
45327;BME280;31062;49.678;24.560;2024-01-16T04:24:37;96540.50;;;0.60;64.44
45327;BME280;31062;49.678;24.560;2024-01-16T04:27:22;96548.53;;;0.58;64.63
45327;BME280;31062;49.678;24.560;2024-01-16T04:30:09;96557.97;;;0.57;64.78
45327;BME280;31062;49.678;24.560;2024-01-16T04:32:55;96563.44;;;0.57;64.35
45327;BME280;31062;49.678;24.560;2024-01-16T04:35:41;96545.25;;;0.52;64.55
45327;BME280;31062;49.678;24.560;2024-01-16T04:38:27;96557.44;;;0.58;64.76
45327;BME280;31062;49.678;24.560;2024-01-16T04:41:13;96549.97;;;0.59;64.90
45327;BME280;31062;49.678;24.560;2024-01-16T04:43:59;96552.53;;;0.57;65.22
45327;BME280;31062;49.678;24.560;2024-01-16T04:46:45;96558.69;;;0.57;64.98
45327;BME280;31062;49.678;24.560;2024-01-16T04:49:31;96557.63;;;0.53;64.65
45327;BME280;31062;49.678;24.560;2024-01-16T04:52:16;96557.97;;;0.57;64.65
45327;BME280;31062;49.678;24.560;2024-01-16T04:55:03;96568.16;;;0.56;63.93
45327;BME280;31062;49.678;24.560;2024-01-16T04:57:49;96568.53;;;0.53;64.94
45327;BME280;31062;49.678;24.560;2024-01-16T05:00:35;96569.63;;;0.50;64.42
45327;BME280;31062;49.678;24.560;2024-01-16T05:03:21;96564.16;;;0.50;64.50
45327;BME280;31062;49.678;24.560;2024-01-16T05:06:14;96573.63;;;0.49;63.82
45327;BME280;31062;49.678;24.560;2024-01-16T05:09:01;96560.34;;;0.45;63.62
45327;BME280;31062;49.678;24.560;2024-01-16T05:11:47;96576.91;;;0.39;63.97
45327;BME280;31062;49.678;24.560;2024-01-16T05:14:33;96568.53;;;0.37;64.35
45327;BME280;31062;49.678;24.560;2024-01-16T05:17:18;96576.56;;;0.35;63.53
45327;BME280;31062;49.678;24.560;2024-01-16T05:20:05;96577.63;;;0.32;63.88
45327;BME280;31062;49.678;24.560;2024-01-16T05:22:51;96583.47;;;0.29;64.57
45327;BME280;31062;49.678;24.560;2024-01-16T05:25:37;96581.28;;;0.27;63.96
45327;BME280;31062;49.678;24.560;2024-01-16T05:28:23;96602.16;;;0.25;64.00
45327;BME280;31062;49.678;24.560;2024-01-16T05:31:09;96605.63;;;0.25;63.78
45327;BME280;31062;49.678;24.560;2024-01-16T05:33:55;96614.91;;;0.22;64.92
45327;BME280;31062;49.678;24.560;2024-01-16T05:36:43;96603.81;;;0.20;64.13
45327;BME280;31062;49.678;24.560;2024-01-16T05:39:29;96606.34;;;0.18;63.64
45327;BME280;31062;49.678;24.560;2024-01-16T05:42:16;96609.97;;;0.13;64.07
45327;BME280;31062;49.678;24.560;2024-01-16T05:45:03;96611.09;;;0.18;64.08
45327;BME280;31062;49.678;24.560;2024-01-16T05:47:49;96619.81;;;0.16;64.14
45327;BME280;31062;49.678;24.560;2024-01-16T05:50:36;96610.69;;;0.06;64.11
45327;BME280;31062;49.678;24.560;2024-01-16T05:53:22;96630.69;;;0.16;64.15
45327;BME280;31062;49.678;24.560;2024-01-16T05:56:08;96632.50;;;0.14;64.37
45327;BME280;31062;49.678;24.560;2024-01-16T05:58:54;96644.50;;;0.11;64.62
45327;BME280;31062;49.678;24.560;2024-01-16T06:01:39;96636.13;;;0.01;64.14
45327;BME280;31062;49.678;24.560;2024-01-16T06:04:25;96635.75;;;-0.03;64.07
45327;BME280;31062;49.678;24.560;2024-01-16T06:07:11;96656.66;;;0.02;64.64
45327;BME280;31062;49.678;24.560;2024-01-16T06:09:57;96652.66;;;0.03;64.04
45327;BME280;31062;49.678;24.560;2024-01-16T06:12:43;96667.91;;;0.06;64.40
45327;BME280;31062;49.678;24.560;2024-01-16T06:15:28;96665.91;;;0.07;63.69
45327;BME280;31062;49.678;24.560;2024-01-16T06:18:34;96664.66;;;0.08;64.36
45327;BME280;31062;49.678;24.560;2024-01-16T06:21:40;96673.22;;;0.12;64.37
45327;BME280;31062;49.678;24.560;2024-01-16T06:24:45;96675.38;;;0.13;64.40
45327;BME280;31062;49.678;24.560;2024-01-16T06:27:51;96673.38;;;0.14;64.40
45327;BME280;31062;49.678;24.560;2024-01-16T06:30:56;96692.09;;;0.17;64.80
45327;BME280;31062;49.678;24.560;2024-01-16T06:34:02;96693.19;;;0.22;64.66
45327;BME280;31062;49.678;24.560;2024-01-16T06:37:08;96684.09;;;0.19;64.97
45327;BME280;31062;49.678;24.560;2024-01-16T06:39:54;96703.41;;;0.29;64.03
45327;BME280;31062;49.678;24.560;2024-01-16T06:42:40;96676.44;;;0.03;64.60
45327;BME280;31062;49.678;24.560;2024-01-16T06:45:26;96704.13;;;0.29;64.74
45327;BME280;31062;49.678;24.560;2024-01-16T06:48:12;96713.56;;;0.28;65.45
45327;BME280;31062;49.678;24.560;2024-01-16T06:50:58;96721.75;;;0.28;65.29
45327;BME280;31062;49.678;24.560;2024-01-16T06:53:44;96724.47;;;0.28;65.98
45327;BME280;31062;49.678;24.560;2024-01-16T06:56:30;96728.28;;;0.33;65.48
45327;BME280;31062;49.678;24.560;2024-01-16T06:59:15;96732.47;;;0.34;66.10
45327;BME280;31062;49.678;24.560;2024-01-16T07:02:04;96744.09;;;0.34;66.22
45327;BME280;31062;49.678;24.560;2024-01-16T07:04:50;96741.38;;;0.34;66.40
45327;BME280;31062;49.678;24.560;2024-01-16T07:07:36;96741.53;;;0.36;66.15
45327;BME280;31062;49.678;24.560;2024-01-16T07:10:22;96740.66;;;0.34;66.17
45327;BME280;31062;49.678;24.560;2024-01-16T07:13:09;96750.66;;;0.39;65.96
45327;BME280;31062;49.678;24.560;2024-01-16T07:15:55;96753.00;;;0.35;66.32
45327;BME280;31062;49.678;24.560;2024-01-16T07:18:41;96754.81;;;0.32;66.23
45327;BME280;31062;49.678;24.560;2024-01-16T07:21:32;96751.72;;;0.28;65.31
45327;BME280;31062;49.678;24.560;2024-01-16T07:24:19;96760.06;;;0.30;65.60
45327;BME280;31062;49.678;24.560;2024-01-16T07:27:05;96770.97;;;0.30;65.72
45327;BME280;31062;49.678;24.560;2024-01-16T07:29:50;96764.47;;;0.33;65.93
45327;BME280;31062;49.678;24.560;2024-01-16T07:32:36;96778.44;;;0.37;65.82
45327;BME280;31062;49.678;24.560;2024-01-16T07:49:54;96789.56;;;0.55;65.02
45327;BME280;31062;49.678;24.560;2024-01-16T07:52:41;96802.28;;;0.60;64.14
45327;BME280;31062;49.678;24.560;2024-01-16T07:55:27;96810.69;;;0.62;64.35
45327;BME280;31062;49.678;24.560;2024-01-16T07:58:13;96802.69;;;0.64;64.19
45327;BME280;31062;49.678;24.560;2024-01-16T08:00:59;96809.97;;;0.69;64.25
45327;BME280;31062;49.678;24.560;2024-01-16T08:03:45;96815.06;;;0.72;64.05
45327;BME280;31062;49.678;24.560;2024-01-16T08:06:31;96810.31;;;0.73;64.53
45327;BME280;31062;49.678;24.560;2024-01-16T08:09:18;96811.06;;;0.73;64.00
45327;BME280;31062;49.678;24.560;2024-01-16T08:12:05;96817.25;;;0.74;63.31
45327;BME280;31062;49.678;24.560;2024-01-16T08:14:52;96818.69;;;0.75;63.52
45327;BME280;31062;49.678;24.560;2024-01-16T08:17:37;96810.72;;;0.77;64.08
45327;BME280;31062;49.678;24.560;2024-01-16T08:20:24;96817.25;;;0.81;64.12
45327;BME280;31062;49.678;24.560;2024-01-16T08:23:09;96831.09;;;0.99;64.46
45327;BME280;31062;49.678;24.560;2024-01-16T08:25:55;96834.75;;;1.16;63.82
45327;BME280;31062;49.678;24.560;2024-01-16T08:28:40;96831.09;;;1.29;63.37
45327;BME280;31062;49.678;24.560;2024-01-16T08:31:26;96829.81;;;1.38;61.97
45327;BME280;31062;49.678;24.560;2024-01-16T08:34:12;96816.16;;;1.38;61.77
45327;BME280;31062;49.678;24.560;2024-01-16T08:36:58;96836.34;;;1.50;61.94
45327;BME280;31062;49.678;24.560;2024-01-16T08:39:44;96844.53;;;1.50;61.57
45327;BME280;31062;49.678;24.560;2024-01-16T08:42:30;96841.66;;;1.48;61.47
45327;BME280;31062;49.678;24.560;2024-01-16T08:45:16;96849.66;;;1.46;61.04
45327;BME280;31062;49.678;24.560;2024-01-16T08:48:02;96843.84;;;1.42;62.03
45327;BME280;31062;49.678;24.560;2024-01-16T08:50:49;96844.19;;;1.38;61.54
45327;BME280;31062;49.678;24.560;2024-01-16T08:53:34;96843.84;;;1.34;62.33
45327;BME280;31062;49.678;24.560;2024-01-16T08:56:20;96828.19;;;1.19;62.39
45327;BME280;31062;49.678;24.560;2024-01-16T08:59:06;96855.47;;;1.27;62.63
45327;BME280;31062;49.678;24.560;2024-01-16T09:01:52;96842.56;;;1.12;62.53
45327;BME280;31062;49.678;24.560;2024-01-16T09:04:38;96854.03;;;1.18;61.83
45327;BME280;31062;49.678;24.560;2024-01-16T09:07:27;96857.13;;;1.15;63.09
45327;BME280;31062;49.678;24.560;2024-01-16T09:10:13;96850.75;;;1.12;62.33
45327;BME280;31062;49.678;24.560;2024-01-16T09:12:58;96852.19;;;1.13;62.50
45327;BME280;31062;49.678;24.560;2024-01-16T09:15:47;96847.84;;;1.26;62.42
45327;BME280;31062;49.678;24.560;2024-01-16T09:18:34;96857.50;;;1.42;62.71
45327;BME280;31062;49.678;24.560;2024-01-16T09:21:21;96865.66;;;1.57;61.64
45327;BME280;31062;49.678;24.560;2024-01-16T09:24:26;96859.09;;;1.68;60.56
45327;BME280;31062;49.678;24.560;2024-01-16T09:27:12;96860.19;;;1.72;60.88
45327;BME280;31062;49.678;24.560;2024-01-16T09:29:59;96859.44;;;1.79;60.33
45327;BME280;31062;49.678;24.560;2024-01-16T09:32:45;96852.53;;;1.78;60.17
45327;BME280;31062;49.678;24.560;2024-01-16T09:35:31;96858.00;;;1.78;59.88
45327;BME280;31062;49.678;24.560;2024-01-16T09:38:17;96848.53;;;1.72;59.96
45327;BME280;31062;49.678;24.560;2024-01-16T09:41:23;96845.28;;;1.58;60.86
45327;BME280;31062;49.678;24.560;2024-01-16T09:44:09;96866.41;;;1.65;61.15
45327;BME280;31062;49.678;24.560;2024-01-16T09:46:57;96874.06;;;1.67;60.71
45327;BME280;31062;49.678;24.560;2024-01-16T09:49:46;96870.41;;;1.64;60.72
45327;BME280;31062;49.678;24.560;2024-01-16T09:52:40;96866.41;;;1.65;60.33
45327;BME280;31062;49.678;24.560;2024-01-16T09:55:25;96861.28;;;1.61;60.80
45327;BME280;31062;49.678;24.560;2024-01-16T09:58:12;96875.88;;;1.56;60.89
45327;BME280;31062;49.678;24.560;2024-01-16T10:01:00;96886.97;;;1.51;61.40
45327;BME280;31062;49.678;24.560;2024-01-16T10:04:06;96880.25;;;1.52;61.28
45327;BME280;31062;49.678;24.560;2024-01-16T10:06:53;96871.16;;;1.42;61.54
45327;BME280;31062;49.678;24.560;2024-01-16T10:09:40;96907.19;;;1.55;62.49
45327;BME280;31062;49.678;24.560;2024-01-16T10:12:26;96897.19;;;1.43;62.91
45327;BME280;31062;49.678;24.560;2024-01-16T10:15:14;96909.00;;;1.45;64.59
45327;BME280;31062;49.678;24.560;2024-01-16T10:18:00;96909.91;;;1.40;66.19
45327;BME280;31062;49.678;24.560;2024-01-16T10:20:46;96911.56;;;1.36;66.20
45327;BME280;31062;49.678;24.560;2024-01-16T10:23:32;96906.09;;;1.36;67.08
45327;BME280;31062;49.678;24.560;2024-01-16T10:26:21;96912.47;;;1.38;67.33
45327;BME280;31062;49.678;24.560;2024-01-16T10:29:06;96903.00;;;1.24;67.52
45327;BME280;31062;49.678;24.560;2024-01-16T10:31:53;96921.75;;;1.28;66.70
45327;BME280;31062;49.678;24.560;2024-01-16T10:34:39;96921.75;;;1.28;67.46
45327;BME280;31062;49.678;24.560;2024-01-16T10:37:25;96911.56;;;1.28;68.29
45327;BME280;31062;49.678;24.560;2024-01-16T10:40:18;96921.38;;;1.31;68.03
45327;BME280;31062;49.678;24.560;2024-01-16T10:43:09;96926.50;;;1.35;68.58
45327;BME280;31062;49.678;24.560;2024-01-16T10:46:06;96917.03;;;1.36;67.66
45327;BME280;31062;49.678;24.560;2024-01-16T10:49:03;96923.56;;;1.33;68.03
45327;BME280;31062;49.678;24.560;2024-01-16T10:51:51;96914.47;;;1.30;67.79
45327;BME280;31062;49.678;24.560;2024-01-16T10:54:42;96925.75;;;1.27;68.09
45327;BME280;31062;49.678;24.560;2024-01-16T10:57:40;96919.00;;;1.28;67.12
45327;BME280;31062;49.678;24.560;2024-01-16T11:00:36;96929.03;;;1.33;67.64
45327;BME280;31062;49.678;24.560;2024-01-16T11:04:23;96940.34;;;1.37;67.15
45327;BME280;31062;49.678;24.560;2024-01-16T11:11:22;96890.75;;;1.02;66.63
45327;BME280;31062;49.678;24.560;2024-01-16T11:14:08;96796.06;;;0.36;66.16
45327;BME280;31062;49.678;24.560;2024-01-16T11:16:55;96949.03;;;1.28;67.24
45327;BME280;31062;49.678;24.560;2024-01-16T11:19:42;96838.28;;;0.51;68.50
45327;BME280;31062;49.678;24.560;2024-01-16T11:22:49;96953.03;;;1.27;68.71
45327;BME280;31062;49.678;24.560;2024-01-16T11:25:35;96957.03;;;1.18;69.88
45327;BME280;31062;49.678;24.560;2024-01-16T11:28:33;96943.19;;;1.08;69.77
45327;BME280;31062;49.678;24.560;2024-01-16T11:31:46;96968.88;;;1.20;69.35
45327;BME280;31062;49.678;24.560;2024-01-16T11:37:30;96991.59;;;1.15;68.70
45327;BME280;31062;49.678;24.560;2024-01-16T11:46:17;96984.97;;;0.96;67.04
45327;BME280;31062;49.678;24.560;2024-01-16T11:49:05;97017.06;;;1.10;66.53
45327;BME280;31062;49.678;24.560;2024-01-16T11:51:52;97036.69;;;1.01;67.57
45327;BME280;31062;49.678;24.560;2024-01-16T11:54:39;97043.50;;;0.79;68.21
45327;BME280;31062;49.678;24.560;2024-01-16T12:00:45;97056.50;;;0.09;70.76
45327;BME280;31062;49.678;24.560;2024-01-16T12:03:33;97041.63;;;-0.31;71.18
45327;BME280;31062;49.678;24.560;2024-01-16T12:06:20;97069.38;;;-0.33;72.10
45327;BME280;31062;49.678;24.560;2024-01-16T12:09:17;97066.19;;;-0.45;72.92
45327;BME280;31062;49.678;24.560;2024-01-16T12:12:03;96900.19;;;-1.67;72.90
45327;BME280;31062;49.678;24.560;2024-01-16T12:14:56;96926.69;;;-1.47;72.92
45327;BME280;31062;49.678;24.560;2024-01-16T12:20:41;97067.72;;;-0.70;72.51
45327;BME280;31062;49.678;24.560;2024-01-16T12:23:28;97067.56;;;-0.51;72.70
45327;BME280;31062;49.678;24.560;2024-01-16T12:26:21;97096.34;;;-0.43;72.52
45327;BME280;31062;49.678;24.560;2024-01-16T12:29:10;97080.81;;;-0.34;72.07
45327;BME280;31062;49.678;24.560;2024-01-16T12:32:26;97080.31;;;-0.12;71.53
45327;BME280;31062;49.678;24.560;2024-01-16T12:35:21;97093.13;;;0.00;71.34
45327;BME280;31062;49.678;24.560;2024-01-16T12:38:09;97074.53;;;-0.09;70.64
45327;BME280;31062;49.678;24.560;2024-01-16T12:40:55;97091.31;;;0.03;70.86
45327;BME280;31062;49.678;24.560;2024-01-16T12:43:41;97087.41;;;0.12;70.19
45327;BME280;31062;49.678;24.560;2024-01-16T12:46:27;97088.47;;;0.09;69.14
45327;BME280;31062;49.678;24.560;2024-01-16T12:49:13;97096.03;;;0.03;69.65
45327;BME280;31062;49.678;24.560;2024-01-16T12:52:19;96969.75;;;-0.91;69.11
45327;BME280;31062;49.678;24.560;2024-01-16T12:55:07;97125.09;;;0.00;69.14
45327;BME280;31062;49.678;24.560;2024-01-16T13:01:29;97125.69;;;0.06;69.35
45327;BME280;31062;49.678;24.560;2024-01-16T13:04:24;97134.66;;;0.14;68.49
45327;BME280;31062;49.678;24.560;2024-01-16T13:07:10;97136.34;;;0.17;68.01
45327;BME280;31062;49.678;24.560;2024-01-16T13:10:08;97155.00;;;0.13;68.49
45327;BME280;31062;49.678;24.560;2024-01-16T13:13:11;97143.31;;;0.05;67.90
45327;BME280;31062;49.678;24.560;2024-01-16T13:15:58;97131.34;;;0.08;66.98
45327;BME280;31062;49.678;24.560;2024-01-16T13:18:45;97128.13;;;-0.04;66.49
45327;BME280;31062;49.678;24.560;2024-01-16T13:21:31;97161.69;;;-0.09;66.34
45327;BME280;31062;49.678;24.560;2024-01-16T13:24:17;97137.03;;;-0.03;65.98
45327;BME280;31062;49.678;24.560;2024-01-16T13:27:07;97128.13;;;-0.24;66.02
45327;BME280;31062;49.678;24.560;2024-01-16T13:29:57;97136.09;;;-0.26;65.95
45327;BME280;31062;49.678;24.560;2024-01-16T13:32:44;97154.03;;;-0.10;65.89
45327;BME280;31062;49.678;24.560;2024-01-16T13:35:41;97156.78;;;-0.10;66.38
45327;BME280;31062;49.678;24.560;2024-01-16T13:38:27;97156.38;;;-0.14;65.23
45327;BME280;31062;49.678;24.560;2024-01-16T13:41:14;97164.16;;;-0.18;64.23
45327;BME280;31062;49.678;24.560;2024-01-16T13:44:00;97011.47;;;-1.35;64.32
45327;BME280;31062;49.678;24.560;2024-01-16T13:46:52;97175.69;;;-0.25;64.42
45327;BME280;31062;49.678;24.560;2024-01-16T13:49:52;97182.19;;;-0.28;63.76
45327;BME280;31062;49.678;24.560;2024-01-16T13:52:39;97174.13;;;-0.34;63.35
45327;BME280;31062;49.678;24.560;2024-01-16T13:55:26;97150.31;;;-0.54;63.88
45327;BME280;31062;49.678;24.560;2024-01-16T13:58:12;97056.53;;;-1.27;64.10
45327;BME280;31062;49.678;24.560;2024-01-16T14:00:58;97185.34;;;-0.37;63.71
45327;BME280;31062;49.678;24.560;2024-01-16T14:03:44;97204.94;;;-0.39;64.02
45327;BME280;31062;49.678;24.560;2024-01-16T14:06:32;97029.97;;;-1.60;63.46
45327;BME280;31062;49.678;24.560;2024-01-16T14:09:38;97218.44;;;-0.47;63.72
45327;BME280;31062;49.678;24.560;2024-01-16T14:12:28;97044.41;;;-1.65;63.28
45327;BME280;31062;49.678;24.560;2024-01-16T14:15:16;97216.16;;;-0.56;64.18
45327;BME280;31062;49.678;24.560;2024-01-16T14:18:08;97247.88;;;-0.58;63.71
45327;BME280;31062;49.678;24.560;2024-01-16T14:20:57;97231.03;;;-0.57;63.71
45327;BME280;31062;49.678;24.560;2024-01-16T14:23:46;97228.53;;;-0.68;63.86
45327;BME280;31062;49.678;24.560;2024-01-16T14:26:33;97238.34;;;-0.65;64.83
45327;BME280;31062;49.678;24.560;2024-01-16T14:29:19;97237.94;;;-0.69;64.65
45327;BME280;31062;49.678;24.560;2024-01-16T14:32:06;97226.63;;;-0.99;64.88
45327;BME280;31062;49.678;24.560;2024-01-16T14:34:52;97249.44;;;-0.76;64.66
45327;BME280;31062;49.678;24.560;2024-01-16T14:37:38;97255.22;;;-0.79;64.59
45327;BME280;31062;49.678;24.560;2024-01-16T14:40:24;97268.94;;;-0.85;64.36
45327;BME280;31062;49.678;24.560;2024-01-16T14:43:11;97262.34;;;-0.90;64.65
45327;BME280;31062;49.678;24.560;2024-01-16T14:45:57;97265.56;;;-0.91;64.82
45327;BME280;31062;49.678;24.560;2024-01-16T14:48:46;97259.91;;;-0.93;65.10
45327;BME280;31062;49.678;24.560;2024-01-16T14:51:33;97264.50;;;-0.88;64.49
45327;BME280;31062;49.678;24.560;2024-01-16T14:54:21;97277.50;;;-0.81;64.07
45327;BME280;31062;49.678;24.560;2024-01-16T14:57:07;97245.03;;;-1.05;63.63
45327;BME280;31062;49.678;24.560;2024-01-16T14:59:54;97288.28;;;-0.75;62.99
45327;BME280;31062;49.678;24.560;2024-01-16T15:02:39;97151.63;;;-1.66;63.80
45327;BME280;31062;49.678;24.560;2024-01-16T15:05:25;97112.91;;;-1.98;63.58
45327;BME280;31062;49.678;24.560;2024-01-16T15:08:11;97261.34;;;-1.05;63.65
45327;BME280;31062;49.678;24.560;2024-01-16T15:11:00;97326.72;;;-0.79;63.66
45327;BME280;31062;49.678;24.560;2024-01-16T15:13:45;97300.53;;;-0.82;63.97
45327;BME280;31062;49.678;24.560;2024-01-16T15:16:31;97307.03;;;-0.85;62.98
45327;BME280;31062;49.678;24.560;2024-01-16T15:19:18;97306.69;;;-0.82;63.30
45327;BME280;31062;49.678;24.560;2024-01-16T15:22:04;97185.72;;;-1.65;63.52
45327;BME280;31062;49.678;24.560;2024-01-16T15:24:51;97324.00;;;-0.66;63.72
45327;BME280;31062;49.678;24.560;2024-01-16T15:27:37;97336.34;;;-0.65;62.93
45327;BME280;31062;49.678;24.560;2024-01-16T15:30:23;97310.91;;;-0.80;63.39